sensor_id;sensor_type;location;lat;lon;timestamp;P1;durP1;ratioP1;P2;durP2;ratioP2
25155;SDS011;21913;52.456;13.634;2023-06-14T00:04:49;4.70;;;3.58;;
25155;SDS011;21913;52.456;13.634;2023-06-14T00:09:51;4.80;;;3.60;;
25155;SDS011;21913;52.456;13.634;2023-06-14T00:14:52;4.22;;;3.40;;
25155;SDS011;21913;52.456;13.634;2023-06-14T00:19:54;5.68;;;3.00;;
25155;SDS011;21913;52.456;13.634;2023-06-14T00:24:56;4.72;;;3.50;;
25155;SDS011;21913;52.456;13.634;2023-06-14T00:29:57;4.75;;;3.30;;
25155;SDS011;21913;52.456;13.634;2023-06-14T00:35:00;4.25;;;3.20;;
25155;SDS011;21913;52.456;13.634;2023-06-14T00:40:03;5.85;;;3.40;;
25155;SDS011;21913;52.456;13.634;2023-06-14T00:45:06;5.07;;;3.40;;
25155;SDS011;21913;52.456;13.634;2023-06-14T00:50:08;4.72;;;3.40;;
25155;SDS011;21913;52.456;13.634;2023-06-14T00:55:10;4.55;;;3.70;;
25155;SDS011;21913;52.456;13.634;2023-06-14T01:00:12;4.78;;;3.30;;
25155;SDS011;21913;52.456;13.634;2023-06-14T01:05:14;5.00;;;3.38;;
25155;SDS011;21913;52.456;13.634;2023-06-14T01:15:48;4.93;;;3.42;;
25155;SDS011;21913;52.456;13.634;2023-06-14T01:20:52;3.75;;;3.00;;
25155;SDS011;21913;52.456;13.634;2023-06-14T01:25:53;4.22;;;3.50;;
25155;SDS011;21913;52.456;13.634;2023-06-14T01:30:55;4.80;;;3.22;;
25155;SDS011;21913;52.456;13.634;2023-06-14T01:35:56;4.55;;;3.22;;
25155;SDS011;21913;52.456;13.634;2023-06-14T01:40:59;5.25;;;3.25;;
25155;SDS011;21913;52.456;13.634;2023-06-14T01:46:01;4.25;;;3.03;;
25155;SDS011;21913;52.456;13.634;2023-06-14T01:51:04;4.07;;;3.10;;
25155;SDS011;21913;52.456;13.634;2023-06-14T01:56:05;3.95;;;3.13;;
25155;SDS011;21913;52.456;13.634;2023-06-14T02:01:07;4.05;;;3.17;;
25155;SDS011;21913;52.456;13.634;2023-06-14T02:06:09;4.13;;;3.00;;
25155;SDS011;21913;52.456;13.634;2023-06-14T02:11:10;4.10;;;3.20;;
25155;SDS011;21913;52.456;13.634;2023-06-14T02:16:12;4.10;;;2.90;;
25155;SDS011;21913;52.456;13.634;2023-06-14T02:21:13;3.78;;;2.95;;
25155;SDS011;21913;52.456;13.634;2023-06-14T02:26:15;4.45;;;2.97;;
25155;SDS011;21913;52.456;13.634;2023-06-14T02:31:16;3.33;;;2.83;;
25155;SDS011;21913;52.456;13.634;2023-06-14T02:36:18;4.10;;;3.03;;
25155;SDS011;21913;52.456;13.634;2023-06-14T02:41:20;3.55;;;2.90;;
25155;SDS011;21913;52.456;13.634;2023-06-14T02:46:21;3.10;;;2.55;;
25155;SDS011;21913;52.456;13.634;2023-06-14T02:51:23;3.88;;;2.83;;
25155;SDS011;21913;52.456;13.634;2023-06-14T02:56:25;3.25;;;2.85;;
25155;SDS011;21913;52.456;13.634;2023-06-14T03:01:27;4.40;;;2.88;;
25155;SDS011;21913;52.456;13.634;2023-06-14T03:06:29;3.22;;;2.58;;
25155;SDS011;21913;52.456;13.634;2023-06-14T03:11:32;3.75;;;2.83;;
25155;SDS011;21913;52.456;13.634;2023-06-14T03:16:35;3.55;;;3.05;;
25155;SDS011;21913;52.456;13.634;2023-06-14T03:21:36;4.28;;;2.85;;
25155;SDS011;21913;52.456;13.634;2023-06-14T03:26:38;4.93;;;2.83;;
25155;SDS011;21913;52.456;13.634;2023-06-14T03:31:41;3.70;;;2.70;;
25155;SDS011;21913;52.456;13.634;2023-06-14T03:36:57;3.90;;;2.75;;
25155;SDS011;21913;52.456;13.634;2023-06-14T03:41:59;2.70;;;2.40;;
25155;SDS011;21913;52.456;13.634;2023-06-14T03:47:01;4.30;;;3.13;;
25155;SDS011;21913;52.456;13.634;2023-06-14T03:52:03;3.20;;;2.50;;
25155;SDS011;21913;52.456;13.634;2023-06-14T03:57:06;3.25;;;2.78;;
25155;SDS011;21913;52.456;13.634;2023-06-14T04:02:08;4.40;;;2.80;;
25155;SDS011;21913;52.456;13.634;2023-06-14T04:07:10;3.38;;;2.55;;
25155;SDS011;21913;52.456;13.634;2023-06-14T04:12:18;3.75;;;2.70;;
25155;SDS011;21913;52.456;13.634;2023-06-14T04:17:19;3.13;;;2.63;;
25155;SDS011;21913;52.456;13.634;2023-06-14T04:22:21;3.35;;;2.47;;
25155;SDS011;21913;52.456;13.634;2023-06-14T04:27:23;3.78;;;2.70;;
25155;SDS011;21913;52.456;13.634;2023-06-14T04:32:25;3.97;;;2.50;;
25155;SDS011;21913;52.456;13.634;2023-06-14T04:37:28;3.85;;;2.90;;
25155;SDS011;21913;52.456;13.634;2023-06-14T04:42:30;3.92;;;2.60;;
25155;SDS011;21913;52.456;13.634;2023-06-14T04:47:34;3.20;;;2.67;;
25155;SDS011;21913;52.456;13.634;2023-06-14T04:52:36;3.33;;;2.50;;
25155;SDS011;21913;52.456;13.634;2023-06-14T04:57:39;3.03;;;2.45;;
25155;SDS011;21913;52.456;13.634;2023-06-14T05:02:42;3.80;;;2.80;;
25155;SDS011;21913;52.456;13.634;2023-06-14T05:07:44;3.13;;;2.50;;
25155;SDS011;21913;52.456;13.634;2023-06-14T05:12:46;4.20;;;2.63;;
25155;SDS011;21913;52.456;13.634;2023-06-14T05:17:48;2.78;;;2.30;;
25155;SDS011;21913;52.456;13.634;2023-06-14T05:22:49;3.35;;;2.53;;
25155;SDS011;21913;52.456;13.634;2023-06-14T05:27:51;3.50;;;2.50;;
25155;SDS011;21913;52.456;13.634;2023-06-14T05:32:52;3.45;;;2.55;;
25155;SDS011;21913;52.456;13.634;2023-06-14T05:37:54;5.72;;;2.60;;
25155;SDS011;21913;52.456;13.634;2023-06-14T05:42:56;3.22;;;2.40;;
25155;SDS011;21913;52.456;13.634;2023-06-14T05:47:57;3.45;;;2.58;;
25155;SDS011;21913;52.456;13.634;2023-06-14T05:52:59;3.00;;;2.47;;
25155;SDS011;21913;52.456;13.634;2023-06-14T05:58:00;3.28;;;2.20;;
25155;SDS011;21913;52.456;13.634;2023-06-14T06:03:02;2.70;;;2.20;;
25155;SDS011;21913;52.456;13.634;2023-06-14T06:08:04;4.53;;;2.42;;
25155;SDS011;21913;52.456;13.634;2023-06-14T06:13:05;3.17;;;2.40;;
25155;SDS011;21913;52.456;13.634;2023-06-14T06:18:07;2.70;;;2.30;;
25155;SDS011;21913;52.456;13.634;2023-06-14T06:23:08;3.13;;;2.38;;
25155;SDS011;21913;52.456;13.634;2023-06-14T06:28:10;3.60;;;2.22;;
25155;SDS011;21913;52.456;13.634;2023-06-14T06:33:11;3.50;;;2.50;;
25155;SDS011;21913;52.456;13.634;2023-06-14T06:38:13;2.78;;;2.30;;
25155;SDS011;21913;52.456;13.634;2023-06-14T06:43:15;3.25;;;2.40;;
25155;SDS011;21913;52.456;13.634;2023-06-14T06:48:20;3.00;;;2.20;;
25155;SDS011;21913;52.456;13.634;2023-06-14T06:53:21;3.10;;;2.38;;
25155;SDS011;21913;52.456;13.634;2023-06-14T06:58:27;3.15;;;2.35;;
25155;SDS011;21913;52.456;13.634;2023-06-14T07:03:28;3.20;;;2.30;;
25155;SDS011;21913;52.456;13.634;2023-06-14T07:08:30;3.15;;;2.33;;
25155;SDS011;21913;52.456;13.634;2023-06-14T07:13:32;3.83;;;2.30;;
25155;SDS011;21913;52.456;13.634;2023-06-14T07:18:33;2.95;;;2.20;;
25155;SDS011;21913;52.456;13.634;2023-06-14T07:23:35;3.35;;;2.30;;
25155;SDS011;21913;52.456;13.634;2023-06-14T07:28:36;2.70;;;2.08;;
25155;SDS011;21913;52.456;13.634;2023-06-14T07:33:38;3.38;;;2.25;;
25155;SDS011;21913;52.456;13.634;2023-06-14T07:38:39;3.28;;;2.30;;
25155;SDS011;21913;52.456;13.634;2023-06-14T07:43:41;3.17;;;2.00;;
25155;SDS011;21913;52.456;13.634;2023-06-14T07:48:43;3.35;;;2.10;;
25155;SDS011;21913;52.456;13.634;2023-06-14T07:53:44;2.53;;;1.95;;
25155;SDS011;21913;52.456;13.634;2023-06-14T07:58:46;2.60;;;2.10;;
25155;SDS011;21913;52.456;13.634;2023-06-14T08:03:47;2.85;;;2.08;;
25155;SDS011;21913;52.456;13.634;2023-06-14T08:08:49;5.47;;;2.20;;
25155;SDS011;21913;52.456;13.634;2023-06-14T08:13:50;2.97;;;2.10;;
25155;SDS011;21913;52.456;13.634;2023-06-14T08:18:52;2.92;;;2.25;;
25155;SDS011;21913;52.456;13.634;2023-06-14T08:23:54;2.47;;;1.80;;
25155;SDS011;21913;52.456;13.634;2023-06-14T08:28:56;2.42;;;1.83;;
25155;SDS011;21913;52.456;13.634;2023-06-14T08:33:57;2.60;;;2.13;;
25155;SDS011;21913;52.456;13.634;2023-06-14T08:38:59;2.50;;;1.90;;
25155;SDS011;21913;52.456;13.634;2023-06-14T08:44:00;4.75;;;2.10;;
25155;SDS011;21913;52.456;13.634;2023-06-14T08:49:02;2.30;;;1.90;;
25155;SDS011;21913;52.456;13.634;2023-06-14T08:54:04;2.53;;;1.95;;
25155;SDS011;21913;52.456;13.634;2023-06-14T08:59:06;2.80;;;2.05;;
25155;SDS011;21913;52.456;13.634;2023-06-14T09:04:08;3.05;;;1.80;;
25155;SDS011;21913;52.456;13.634;2023-06-14T09:09:10;1.92;;;1.73;;
25155;SDS011;21913;52.456;13.634;2023-06-14T09:14:11;2.75;;;2.00;;
25155;SDS011;21913;52.456;13.634;2023-06-14T09:19:25;2.20;;;1.83;;
25155;SDS011;21913;52.456;13.634;2023-06-14T09:24:27;3.40;;;1.80;;
25155;SDS011;21913;52.456;13.634;2023-06-14T09:29:28;2.08;;;1.80;;
25155;SDS011;21913;52.456;13.634;2023-06-14T09:34:30;2.88;;;1.92;;
25155;SDS011;21913;52.456;13.634;2023-06-14T09:39:31;3.38;;;1.90;;
25155;SDS011;21913;52.456;13.634;2023-06-14T09:44:33;2.30;;;1.90;;
25155;SDS011;21913;52.456;13.634;2023-06-14T09:49:35;2.50;;;1.83;;
25155;SDS011;21913;52.456;13.634;2023-06-14T09:54:39;2.53;;;1.85;;
25155;SDS011;21913;52.456;13.634;2023-06-14T09:59:46;2.25;;;1.80;;
25155;SDS011;21913;52.456;13.634;2023-06-14T10:04:58;7.53;;;2.30;;
25155;SDS011;21913;52.456;13.634;2023-06-14T10:10:05;3.38;;;2.08;;
25155;SDS011;21913;52.456;13.634;2023-06-14T10:15:09;4.60;;;2.05;;
25155;SDS011;21913;52.456;13.634;2023-06-14T10:25:36;22.00;;;3.70;;
25155;SDS011;21913;52.456;13.634;2023-06-14T10:30:37;14.45;;;3.35;;
25155;SDS011;21913;52.456;13.634;2023-06-14T10:35:39;12.02;;;2.70;;
25155;SDS011;21913;52.456;13.634;2023-06-14T10:40:40;10.98;;;2.30;;
25155;SDS011;21913;52.456;13.634;2023-06-14T10:46:30;5.78;;;2.42;;
25155;SDS011;21913;52.456;13.634;2023-06-14T10:51:15;6.95;;;2.20;;
25155;SDS011;21913;52.456;13.634;2023-06-14T10:56:30;6.65;;;2.33;;
25155;SDS011;21913;52.456;13.634;2023-06-14T11:01:36;9.27;;;2.47;;
25155;SDS011;21913;52.456;13.634;2023-06-14T11:06:45;5.43;;;2.40;;
25155;SDS011;21913;52.456;13.634;2023-06-14T11:11:51;7.75;;;2.42;;
25155;SDS011;21913;52.456;13.634;2023-06-14T11:16:54;7.07;;;2.67;;
25155;SDS011;21913;52.456;13.634;2023-06-14T11:21:56;7.47;;;2.55;;
25155;SDS011;21913;52.456;13.634;2023-06-14T11:26:57;5.88;;;2.40;;
25155;SDS011;21913;52.456;13.634;2023-06-14T11:31:59;5.78;;;2.20;;
25155;SDS011;21913;52.456;13.634;2023-06-14T11:37:01;4.57;;;2.47;;
25155;SDS011;21913;52.456;13.634;2023-06-14T11:42:03;5.70;;;2.70;;
25155;SDS011;21913;52.456;13.634;2023-06-14T11:47:04;4.25;;;2.10;;
25155;SDS011;21913;52.456;13.634;2023-06-14T11:52:09;4.43;;;2.30;;
25155;SDS011;21913;52.456;13.634;2023-06-14T11:57:11;5.35;;;2.33;;
25155;SDS011;21913;52.456;13.634;2023-06-14T12:02:16;7.47;;;2.53;;
25155;SDS011;21913;52.456;13.634;2023-06-14T12:07:21;4.03;;;2.03;;
25155;SDS011;21913;52.456;13.634;2023-06-14T12:12:23;4.20;;;2.33;;
25155;SDS011;21913;52.456;13.634;2023-06-14T12:17:26;5.03;;;2.17;;
25155;SDS011;21913;52.456;13.634;2023-06-14T12:22:46;6.07;;;2.22;;
25155;SDS011;21913;52.456;13.634;2023-06-14T12:27:51;4.80;;;2.42;;
25155;SDS011;21913;52.456;13.634;2023-06-14T12:32:53;5.65;;;2.38;;
25155;SDS011;21913;52.456;13.634;2023-06-14T12:37:54;5.13;;;2.35;;
25155;SDS011;21913;52.456;13.634;2023-06-14T12:42:56;4.20;;;2.50;;
25155;SDS011;21913;52.456;13.634;2023-06-14T12:47:57;3.90;;;2.20;;
25155;SDS011;21913;52.456;13.634;2023-06-14T12:52:59;4.88;;;2.30;;
25155;SDS011;21913;52.456;13.634;2023-06-14T12:58:01;4.32;;;2.20;;
25155;SDS011;21913;52.456;13.634;2023-06-14T13:03:02;5.13;;;2.22;;
25155;SDS011;21913;52.456;13.634;2023-06-14T13:08:04;5.35;;;2.35;;
25155;SDS011;21913;52.456;13.634;2023-06-14T13:13:06;4.25;;;2.35;;
25155;SDS011;21913;52.456;13.634;2023-06-14T13:18:07;4.00;;;2.15;;
25155;SDS011;21913;52.456;13.634;2023-06-14T13:23:09;4.28;;;2.10;;
25155;SDS011;21913;52.456;13.634;2023-06-14T13:28:10;4.28;;;2.10;;
25155;SDS011;21913;52.456;13.634;2023-06-14T13:33:13;3.60;;;2.33;;
25155;SDS011;21913;52.456;13.634;2023-06-14T13:38:14;5.70;;;2.50;;
25155;SDS011;21913;52.456;13.634;2023-06-14T13:43:16;5.20;;;2.40;;
25155;SDS011;21913;52.456;13.634;2023-06-14T13:48:17;6.55;;;2.47;;
25155;SDS011;21913;52.456;13.634;2023-06-14T13:53:19;5.18;;;2.40;;
25155;SDS011;21913;52.456;13.634;2023-06-14T13:58:20;6.85;;;2.40;;
25155;SDS011;21913;52.456;13.634;2023-06-14T14:03:22;3.83;;;2.03;;
25155;SDS011;21913;52.456;13.634;2023-06-14T14:08:24;5.03;;;2.50;;
25155;SDS011;21913;52.456;13.634;2023-06-14T14:13:25;4.43;;;2.35;;
25155;SDS011;21913;52.456;13.634;2023-06-14T14:18:27;4.25;;;2.25;;
25155;SDS011;21913;52.456;13.634;2023-06-14T14:23:29;4.20;;;2.58;;
25155;SDS011;21913;52.456;13.634;2023-06-14T14:28:31;4.35;;;2.30;;
25155;SDS011;21913;52.456;13.634;2023-06-14T14:33:33;7.75;;;2.80;;
25155;SDS011;21913;52.456;13.634;2023-06-14T14:38:34;7.10;;;2.78;;
25155;SDS011;21913;52.456;13.634;2023-06-14T14:43:36;10.15;;;3.25;;
25155;SDS011;21913;52.456;13.634;2023-06-14T14:48:37;16.52;;;2.88;;
25155;SDS011;21913;52.456;13.634;2023-06-14T14:53:39;5.15;;;2.67;;
25155;SDS011;21913;52.456;13.634;2023-06-14T14:58:41;6.47;;;2.67;;
25155;SDS011;21913;52.456;13.634;2023-06-14T15:03:42;8.80;;;2.67;;
25155;SDS011;21913;52.456;13.634;2023-06-14T15:08:50;4.10;;;2.33;;
25155;SDS011;21913;52.456;13.634;2023-06-14T15:13:51;8.63;;;2.78;;
25155;SDS011;21913;52.456;13.634;2023-06-14T15:18:53;10.02;;;2.65;;
25155;SDS011;21913;52.456;13.634;2023-06-14T15:23:54;3.75;;;2.28;;
25155;SDS011;21913;52.456;13.634;2023-06-14T15:28:56;5.05;;;2.40;;
25155;SDS011;21913;52.456;13.634;2023-06-14T15:33:57;5.85;;;2.70;;
25155;SDS011;21913;52.456;13.634;2023-06-14T15:38:59;3.72;;;2.30;;
25155;SDS011;21913;52.456;13.634;2023-06-14T15:44:00;5.15;;;2.40;;
25155;SDS011;21913;52.456;13.634;2023-06-14T15:49:05;4.35;;;2.28;;
25155;SDS011;21913;52.456;13.634;2023-06-14T15:54:10;3.65;;;2.38;;
25155;SDS011;21913;52.456;13.634;2023-06-14T15:59:11;3.60;;;2.15;;
25155;SDS011;21913;52.456;13.634;2023-06-14T16:04:13;6.13;;;2.28;;
25155;SDS011;21913;52.456;13.634;2023-06-14T16:09:15;4.10;;;2.03;;
25155;SDS011;21913;52.456;13.634;2023-06-14T16:14:16;5.90;;;1.98;;
25155;SDS011;21913;52.456;13.634;2023-06-14T16:19:18;3.75;;;1.83;;
25155;SDS011;21913;52.456;13.634;2023-06-14T16:24:19;6.70;;;2.17;;
25155;SDS011;21913;52.456;13.634;2023-06-14T16:29:21;3.92;;;2.08;;
25155;SDS011;21913;52.456;13.634;2023-06-14T16:34:22;2.80;;;2.03;;
25155;SDS011;21913;52.456;13.634;2023-06-14T16:39:24;3.70;;;2.00;;
25155;SDS011;21913;52.456;13.634;2023-06-14T16:44:26;3.97;;;2.10;;
25155;SDS011;21913;52.456;13.634;2023-06-14T16:49:27;2.58;;;2.00;;
25155;SDS011;21913;52.456;13.634;2023-06-14T16:54:29;2.72;;;1.80;;
25155;SDS011;21913;52.456;13.634;2023-06-14T16:59:30;2.80;;;1.80;;
25155;SDS011;21913;52.456;13.634;2023-06-14T17:04:33;2.92;;;1.65;;
25155;SDS011;21913;52.456;13.634;2023-06-14T17:09:34;4.68;;;1.90;;
25155;SDS011;21913;52.456;13.634;2023-06-14T17:14:36;3.47;;;1.80;;
25155;SDS011;21913;52.456;13.634;2023-06-14T17:19:37;3.05;;;1.92;;
25155;SDS011;21913;52.456;13.634;2023-06-14T17:24:39;3.38;;;1.85;;
25155;SDS011;21913;52.456;13.634;2023-06-14T17:29:41;2.95;;;1.58;;
25155;SDS011;21913;52.456;13.634;2023-06-14T17:34:43;2.95;;;1.80;;
25155;SDS011;21913;52.456;13.634;2023-06-14T17:39:44;2.45;;;1.60;;
25155;SDS011;21913;52.456;13.634;2023-06-14T17:44:46;2.75;;;1.67;;
25155;SDS011;21913;52.456;13.634;2023-06-14T17:49:47;3.10;;;1.90;;
25155;SDS011;21913;52.456;13.634;2023-06-14T17:54:49;3.13;;;1.80;;
25155;SDS011;21913;52.456;13.634;2023-06-14T17:59:50;2.30;;;1.55;;
25155;SDS011;21913;52.456;13.634;2023-06-14T18:04:52;5.05;;;1.67;;
25155;SDS011;21913;52.456;13.634;2023-06-14T18:09:54;2.38;;;1.50;;
25155;SDS011;21913;52.456;13.634;2023-06-14T18:14:55;2.38;;;1.65;;
25155;SDS011;21913;52.456;13.634;2023-06-14T18:19:57;2.05;;;1.42;;
25155;SDS011;21913;52.456;13.634;2023-06-14T18:24:58;2.38;;;1.50;;
25155;SDS011;21913;52.456;13.634;2023-06-14T18:30:00;2.15;;;1.58;;
25155;SDS011;21913;52.456;13.634;2023-06-14T18:35:01;2.85;;;1.50;;
25155;SDS011;21913;52.456;13.634;2023-06-14T18:40:03;2.05;;;1.50;;
25155;SDS011;21913;52.456;13.634;2023-06-14T18:45:05;2.95;;;1.50;;
25155;SDS011;21913;52.456;13.634;2023-06-14T18:50:07;3.10;;;1.60;;
25155;SDS011;21913;52.456;13.634;2023-06-14T18:55:09;2.85;;;1.63;;
25155;SDS011;21913;52.456;13.634;2023-06-14T19:00:11;2.67;;;1.63;;
25155;SDS011;21913;52.456;13.634;2023-06-14T19:05:13;1.75;;;1.40;;
25155;SDS011;21913;52.456;13.634;2023-06-14T19:10:15;1.60;;;1.40;;
25155;SDS011;21913;52.456;13.634;2023-06-14T19:15:16;2.70;;;1.60;;
25155;SDS011;21913;52.456;13.634;2023-06-14T19:20:18;2.83;;;1.70;;
25155;SDS011;21913;52.456;13.634;2023-06-14T19:25:19;3.53;;;1.80;;
25155;SDS011;21913;52.456;13.634;2023-06-14T19:30:21;5.43;;;2.75;;
25155;SDS011;21913;52.456;13.634;2023-06-14T19:35:23;5.85;;;2.65;;
25155;SDS011;21913;52.456;13.634;2023-06-14T19:40:24;9.93;;;2.47;;
25155;SDS011;21913;52.456;13.634;2023-06-14T19:45:26;5.57;;;2.20;;
25155;SDS011;21913;52.456;13.634;2023-06-14T19:50:27;5.63;;;2.35;;
25155;SDS011;21913;52.456;13.634;2023-06-14T19:55:29;4.50;;;2.60;;
25155;SDS011;21913;52.456;13.634;2023-06-14T20:00:30;3.78;;;2.38;;
25155;SDS011;21913;52.456;13.634;2023-06-14T20:05:32;3.53;;;2.30;;
25155;SDS011;21913;52.456;13.634;2023-06-14T20:10:34;4.10;;;2.47;;
25155;SDS011;21913;52.456;13.634;2023-06-14T20:15:36;5.20;;;2.30;;
25155;SDS011;21913;52.456;13.634;2023-06-14T20:20:38;3.05;;;2.13;;
25155;SDS011;21913;52.456;13.634;2023-06-14T20:25:40;4.22;;;2.22;;
25155;SDS011;21913;52.456;13.634;2023-06-14T20:30:41;6.47;;;2.28;;
25155;SDS011;21913;52.456;13.634;2023-06-14T20:35:43;3.90;;;2.33;;
25155;SDS011;21913;52.456;13.634;2023-06-14T20:40:45;3.63;;;2.20;;
25155;SDS011;21913;52.456;13.634;2023-06-14T20:45:47;3.78;;;2.33;;
25155;SDS011;21913;52.456;13.634;2023-06-14T20:50:49;3.55;;;2.40;;
25155;SDS011;21913;52.456;13.634;2023-06-14T20:55:51;5.10;;;2.50;;
25155;SDS011;21913;52.456;13.634;2023-06-14T21:00:52;2.80;;;1.95;;
25155;SDS011;21913;52.456;13.634;2023-06-14T21:05:54;3.60;;;2.05;;
25155;SDS011;21913;52.456;13.634;2023-06-14T21:10:56;4.57;;;2.03;;
25155;SDS011;21913;52.456;13.634;2023-06-14T21:15:57;4.47;;;2.08;;
25155;SDS011;21913;52.456;13.634;2023-06-14T21:20:59;3.00;;;2.25;;
25155;SDS011;21913;52.456;13.634;2023-06-14T21:26:00;3.90;;;2.20;;
25155;SDS011;21913;52.456;13.634;2023-06-14T21:31:06;2.60;;;2.20;;
25155;SDS011;21913;52.456;13.634;2023-06-14T21:36:08;3.17;;;2.00;;
25155;SDS011;21913;52.456;13.634;2023-06-14T21:41:10;3.30;;;2.10;;
25155;SDS011;21913;52.456;13.634;2023-06-14T21:46:12;3.47;;;1.90;;
25155;SDS011;21913;52.456;13.634;2023-06-14T21:51:13;2.80;;;2.10;;
25155;SDS011;21913;52.456;13.634;2023-06-14T21:56:15;5.32;;;1.90;;
25155;SDS011;21913;52.456;13.634;2023-06-14T22:01:17;3.33;;;2.00;;
25155;SDS011;21913;52.456;13.634;2023-06-14T22:06:19;2.63;;;2.05;;
25155;SDS011;21913;52.456;13.634;2023-06-14T22:11:20;5.65;;;2.30;;
25155;SDS011;21913;52.456;13.634;2023-06-14T22:16:22;3.05;;;2.10;;
25155;SDS011;21913;52.456;13.634;2023-06-14T22:21:23;3.05;;;2.13;;
25155;SDS011;21913;52.456;13.634;2023-06-14T22:26:25;3.55;;;2.10;;
25155;SDS011;21913;52.456;13.634;2023-06-14T22:31:28;3.90;;;2.28;;
25155;SDS011;21913;52.456;13.634;2023-06-14T22:36:30;3.47;;;2.03;;
25155;SDS011;21913;52.456;13.634;2023-06-14T22:41:32;2.47;;;2.00;;
25155;SDS011;21913;52.456;13.634;2023-06-14T22:46:33;2.70;;;1.90;;
25155;SDS011;21913;52.456;13.634;2023-06-14T22:51:35;2.40;;;1.67;;
25155;SDS011;21913;52.456;13.634;2023-06-14T22:56:37;3.05;;;1.90;;
25155;SDS011;21913;52.456;13.634;2023-06-14T23:01:38;2.60;;;1.80;;
25155;SDS011;21913;52.456;13.634;2023-06-14T23:06:40;3.10;;;2.08;;
25155;SDS011;21913;52.456;13.634;2023-06-14T23:11:42;3.17;;;1.92;;
25155;SDS011;21913;52.456;13.634;2023-06-14T23:16:43;2.35;;;1.80;;
25155;SDS011;21913;52.456;13.634;2023-06-14T23:21:45;2.53;;;1.90;;
25155;SDS011;21913;52.456;13.634;2023-06-14T23:26:46;2.90;;;1.98;;
25155;SDS011;21913;52.456;13.634;2023-06-14T23:31:48;4.30;;;2.08;;
25155;SDS011;21913;52.456;13.634;2023-06-14T23:36:49;2.15;;;1.75;;
25155;SDS011;21913;52.456;13.634;2023-06-14T23:41:51;3.03;;;1.90;;
25155;SDS011;21913;52.456;13.634;2023-06-14T23:46:52;2.40;;;1.95;;
25155;SDS011;21913;52.456;13.634;2023-06-14T23:51:54;2.92;;;2.08;;
25155;SDS011;21913;52.456;13.634;2023-06-14T23:56:56;2.10;;;1.63;;
